Time;durP1;ratioP1;P1;durP2;ratioP2;P2;SDS_P1;SDS_P2;PMS_P1;PMS_P2;Temp;Humidity;BMP_temperature;BMP_pressure;BME280_temperature;BME280_humidity;BME280_pressure;Samples;Min_cycle;Max_cycle;Signal;HPM_P1;HPM_P2
2022/08/05 00:01:13;;;;;;;11.47;8.03;;;;;;;22.82;62.46;99248.22;5015327;28;20202;-91
2022/08/05 00:03:39;;;;;;;19.67;10.87;;;;;;;22.15;61.73;99148.06;4998071;28;20175;-91
2022/08/05 00:06:05;;;;;;;24.57;12.40;;;;;;;22.78;62.74;99251.69;5002131;28;20185;-90
2022/08/05 00:08:30;;;;;;;19.43;11.07;;;;;;;19.20;61.80;98634.88;5010225;28;20253;-88
2022/08/05 00:11:00;;;;;;;24.77;11.80;;;;;;;21.67;62.07;99040.94;5004932;28;20209;-89
2022/08/05 00:13:25;;;;;;;18.60;9.60;;;;;;;21.06;60.86;98954.59;4999452;28;20199;-91
2022/08/05 00:15:50;;;;;;;14.00;8.50;;;;;;;20.64;60.08;98878.44;4997127;28;20282;-90
2022/08/05 00:18:16;;;;;;;14.30;9.17;;;;;;;21.94;60.10;99113.81;5015551;28;20167;-90
2022/08/05 00:20:41;;;;;;;17.57;9.30;;;;;;;20.44;59.84;98845.09;5014535;28;20198;-90
2022/08/05 00:23:06;;;;;;;12.17;8.63;;;;;;;21.21;60.91;98969.97;4997410;28;20651;-90
2022/08/05 00:25:32;;;;;;;14.03;9.30;;;;;;;22.09;60.92;99129.19;5015450;28;20250;-91
2022/08/05 00:27:58;;;;;;;16.20;9.67;;;;;;;20.85;61.29;98921.25;5015187;28;20186;-90
2022/08/05 00:30:24;;;;;;;15.80;9.47;;;;;;;21.46;62.02;99009.28;5013741;28;20198;-89
2022/08/05 00:32:49;;;;;;;17.00;9.93;;;;;;;19.58;62.80;98718.66;4996786;28;20178;-90
2022/08/05 00:35:15;;;;;;;21.10;12.17;;;;;;;22.77;62.13;99253.41;5014367;28;20171;-90
2022/08/05 00:37:40;;;;;;;20.30;11.77;;;;;;;21.61;61.98;99064.19;4996172;28;20269;-90
2022/08/05 00:40:06;;;;;;;24.13;14.17;;;;;;;20.62;62.93;98899.91;5013235;28;20194;-91
2022/08/05 00:42:34;;;;;;;23.73;14.83;;;;;;;22.41;63.26;99191.75;4996319;28;20187;-91
2022/08/05 00:45:01;;;;;;;33.37;19.83;;;;;;;20.19;63.96;98824.63;4996424;28;20190;-90
2022/08/05 00:47:27;;;;;;;21.23;13.30;;;;;;;21.26;64.27;99017.13;5013506;28;20175;-91
2022/08/05 00:49:52;;;;;;;27.53;15.10;;;;;;;21.92;64.37;99118.97;5013761;28;20182;-91
2022/08/05 00:52:19;;;;;;;20.40;13.27;;;;;;;21.86;65.12;99128.44;4996693;28;20179;-91
2022/08/05 00:54:44;;;;;;;22.77;12.00;;;;;;;20.71;66.12;98951.31;4996702;28;20269;-91
2022/08/05 00:57:10;;;;;;;14.10;10.17;;;;;;;21.53;66.85;99094.28;4996424;28;20633;-90
2022/08/05 00:59:36;;;;;;;17.40;11.63;;;;;;;21.69;68.31;99115.66;4995728;28;20206;-90
2022/08/05 01:02:01;;;;;;;18.17;11.60;;;;;;;22.25;69.96;99228.78;5014116;28;20236;-90
2022/08/05 01:04:26;;;;;;;17.37;11.43;;;;;;;20.25;70.16;98897.47;5013649;28;20155;-91
2022/08/05 01:06:52;;;;;;;20.93;13.80;;;;;;;20.78;69.70;98983.88;4996224;28;20304;-91
2022/08/05 01:09:17;;;;;;;26.30;15.40;;;;;;;21.59;69.77;99117.41;4996662;28;20501;-90
2022/08/05 01:11:45;;;;;;;21.20;12.97;;;;;;;20.00;70.18;98855.53;5000716;28;20228;-91
2022/08/05 01:14:22;;;;;;;14.00;10.20;;;;;;;19.82;70.39;98890.69;5015530;28;20173;-90
2022/08/05 01:16:49;;;;;;;19.90;9.20;;;;;;;21.91;70.63;99222.97;5032687;28;20252;-90
2022/08/05 01:19:38;;;;;;;15.80;9.30;;;;;;;19.15;72.15;98816.22;5033360;28;20173;-89
2022/08/05 01:22:25;;;;;;;13.57;9.27;;;;;;;21.08;75.68;99215.44;4997252;28;20281;-89
2022/08/05 01:25:27;;;;;;;13.87;10.23;;;;;;;20.91;77.10;99217.16;4998754;28;20170;-88
2022/08/05 01:28:23;;;;;;;13.30;10.17;;;;;;;20.82;76.83;99218.00;5014777;28;20709;-90
2022/08/05 01:31:09;;;;;;;14.73;10.60;;;;;;;20.58;75.42;99172.56;5002761;28;20167;-89
2022/08/05 01:33:42;;;;;;;14.13;10.20;;;;;;;20.98;74.80;99218.88;5035487;28;20173;-89
2022/08/05 01:36:12;;;;;;;16.43;10.23;;;;;;;19.57;74.36;98963.44;5035350;28;20222;-87
2022/08/05 01:38:39;;;;;;;17.33;11.23;;;;;;;21.27;73.87;99217.13;5015689;28;20244;-90
2022/08/05 01:41:05;;;;;;;16.30;11.63;;;;;;;21.35;72.55;99240.28;4997309;28;20202;-90
2022/08/05 01:43:32;;;;;;;26.90;14.60;;;;;;;20.96;71.01;99151.94;5013099;28;20174;-90
2022/08/05 01:45:58;;;;;;;25.70;16.10;;;;;;;21.49;70.32;99223.09;5013264;28;20173;-89
2022/08/05 01:48:30;;;;;;;24.67;15.00;;;;;;;21.46;69.42;99208.50;4996414;28;20173;-90
2022/08/05 01:50:56;;;;;;;27.40;14.90;;;;;;;19.46;69.15;98881.28;5014530;28;20185;-90
2022/08/05 01:53:23;;;;;;;16.73;10.37;;;;;;;18.26;70.57;98681.09;4996657;28;20556;-90
2022/08/05 01:55:51;;;;;;;18.67;10.93;;;;;;;19.43;69.15;98881.28;4998069;28;20170;-89
2022/08/05 01:58:19;;;;;;;16.30;10.20;;;;;;;17.92;69.06;98602.47;5005578;28;20232;-90
2022/08/05 02:00:49;;;;;;;16.10;10.20;;;;;;;18.77;69.71;98752.09;5007021;28;20205;-89
2022/08/05 02:03:23;;;;;;;13.97;9.87;;;;;;;21.44;70.89;99223.09;5001490;28;20174;-89
2022/08/05 02:05:50;;;;;;;15.10;10.40;;;;;;;18.72;75.20;98868.34;5017985;28;20227;-90
2022/08/05 02:08:16;;;;;;;13.57;9.93;;;;;;;18.90;75.49;98878.63;5023032;28;20866;-88
2022/08/05 02:10:50;;;;;;;17.53;10.17;;;;;;;20.72;79.02;99220.56;5010579;28;20238;-89
2022/08/05 02:13:26;;;;;;;14.23;10.23;;;;;;;20.27;79.67;99141.72;5019662;28;20171;-91
2022/08/05 02:16:04;;;;;;;13.27;10.90;;;;;;;20.34;83.67;99216.28;5017335;28;20190;-90
2022/08/05 02:18:39;;;;;;;13.33;10.97;;;;;;;20.32;84.35;99217.13;4998841;28;20183;-91
2022/08/05 02:21:11;;;;;;;17.67;11.10;;;;;;;20.32;83.62;99210.28;5016938;28;20198;-90
2022/08/05 02:23:40;;;;;;;16.60;11.40;;;;;;;20.28;83.37;99215.38;5000388;28;20654;-89
2022/08/05 02:26:08;;;;;;;16.47;11.10;;;;;;;18.31;83.48;98900.59;4999324;28;20171;-91
2022/08/05 02:28:38;;;;;;;15.33;11.50;;;;;;;19.53;84.65;99120.97;5016022;28;20167;-92
2022/08/05 02:31:25;;;;;;;28.47;17.20;;;;;;;18.53;83.47;98930.66;4998163;28;20232;-92
2022/08/05 02:33:58;;;;;;;15.57;10.80;;;;;;;20.09;83.32;99211.91;4998470;28;20225;-91
2022/08/05 02:36:26;;;;;;;13.80;10.27;;;;;;;18.99;84.42;99065.94;4998737;28;20197;-90
2022/08/05 02:38:55;;;;;;;14.73;10.57;;;;;;;18.81;85.01;99035.06;5014444;28;20257;-88
2022/08/05 02:41:23;;;;;;;16.47;10.80;;;;;;;18.15;84.11;98897.13;4998265;28;20226;-91
2022/08/05 02:43:50;;;;;;;13.23;10.40;;;;;;;20.07;83.38;99217.88;5007355;28;21025;-90
2022/08/05 02:46:17;;;;;;;18.80;10.47;;;;;;;19.83;83.46;99170.69;5006260;28;20243;-90
2022/08/05 02:48:44;;;;;;;15.07;10.90;;;;;;;20.17;82.31;99220.47;4999477;28;20181;-89
2022/08/05 02:51:11;;;;;;;15.63;11.70;;;;;;;17.09;81.22;98661.81;5017000;28;20166;-91
2022/08/05 02:53:38;;;;;;;14.23;10.80;;;;;;;18.26;80.40;98834.84;4998642;28;20198;-89
2022/08/05 02:56:05;;;;;;;12.17;10.57;;;;;;;20.44;80.44;99207.69;4999177;28;20567;-90
2022/08/05 02:58:31;;;;;;;19.70;11.20;;;;;;;20.17;80.94;99189.63;5016120;28;20179;-89
2022/08/05 03:01:00;;;;;;;18.30;11.53;;;;;;;20.50;80.34;99219.72;4999861;28;20259;-89
2022/08/05 03:03:28;;;;;;;16.67;11.43;;;;;;;19.20;81.55;99052.34;5000869;28;20264;-90
2022/08/05 03:05:54;;;;;;;13.73;11.03;;;;;;;20.07;82.96;99218.75;4998075;28;20303;-89
2022/08/05 03:08:21;;;;;;;13.17;10.80;;;;;;;19.31;82.92;99068.66;5001135;28;21196;-89
2022/08/05 03:10:47;;;;;;;15.50;11.20;;;;;;;19.42;84.14;99138.88;5019153;28;20170;-89
2022/08/05 03:13:16;;;;;;;15.60;10.67;;;;;;;19.93;83.96;99218.72;5019161;28;20175;-89
2022/08/05 03:15:46;;;;;;;14.27;10.70;;;;;;;18.19;85.18;98966.31;5019517;28;20174;-89
2022/08/05 03:18:11;;;;;;;13.90;10.97;;;;;;;19.67;84.66;99222.00;4999801;28;20236;-87
2022/08/05 03:20:37;;;;;;;17.93;11.10;;;;;;;19.66;83.99;99217.75;4999022;28;20700;-90
2022/08/05 03:23:08;;;;;;;14.00;10.27;;;;;;;17.40;83.44;98844.53;4998827;28;20521;-89
2022/08/05 03:25:35;;;;;;;12.97;9.97;;;;;;;19.51;83.48;99212.50;5004201;28;20170;-87
2022/08/05 03:28:11;;;;;;;13.07;9.53;;;;;;;18.83;81.90;99092.34;5009519;28;20175;-89
2022/08/05 03:30:36;;;;;;;14.67;10.10;;;;;;;17.29;81.14;98828.25;5007888;28;20789;-90
2022/08/05 03:33:04;;;;;;;13.70;10.23;;;;;;;19.59;81.27;99218.53;5019489;28;20238;-90
2022/08/05 03:35:32;;;;;;;14.37;10.90;;;;;;;19.64;80.78;99232.28;5002010;28;20167;-88
2022/08/05 03:37:58;;;;;;;14.37;10.87;;;;;;;17.81;81.08;98967.75;4997153;28;20313;-88
2022/08/05 03:40:24;;;;;;;18.23;11.80;;;;;;;17.41;82.07;98911.94;5016429;28;20233;-90
2022/08/05 03:42:50;;;;;;;14.07;11.30;;;;;;;17.13;82.42;98857.09;5015137;28;20659;-91
2022/08/05 03:45:15;;;;;;;14.63;11.33;;;;;;;19.17;82.90;99214.03;4998463;28;20186;-89
2022/08/05 03:47:41;;;;;;;14.10;11.50;;;;;;;18.42;83.48;99096.31;5016562;28;20169;-88
2022/08/05 03:50:06;;;;;;;13.90;11.53;;;;;;;17.52;84.35;98982.84;5017303;28;20182;-88
2022/08/05 03:52:39;;;;;;;17.63;11.83;;;;;;;18.89;85.89;99219.81;5015875;28;20316;-89
2022/08/05 03:55:09;;;;;;;16.40;11.27;;;;;;;17.81;85.85;99069.31;5016258;28;20228;-89
2022/08/05 03:57:38;;;;;;;14.43;11.03;;;;;;;16.42;84.83;98798.44;4998755;28;20179;-90
2022/08/05 04:00:12;;;;;;;13.43;10.47;;;;;;;18.81;84.57;99183.84;4998492;28;20209;-89
2022/08/05 04:02:41;;;;;;;15.37;10.90;;;;;;;18.10;84.71;99099.47;4997591;28;20263;-90
2022/08/05 04:05:08;;;;;;;12.73;10.17;;;;;;;16.99;85.66;98899.59;4997152;28;20202;-90
2022/08/05 04:07:34;;;;;;;16.57;10.63;;;;;;;18.28;84.76;99075.72;4997336;28;20185;-92
2022/08/05 04:10:00;;;;;;;14.67;10.67;;;;;;;16.61;85.06;98807.19;4997846;28;20177;-90
2022/08/05 04:12:27;;;;;;;15.40;10.37;;;;;;;16.39;84.55;98754.09;4996726;28;20266;-89
2022/08/05 04:14:53;;;;;;;14.00;11.00;;;;;;;18.13;82.67;98994.44;4995845;28;20174;-90
2022/08/05 04:17:19;;;;;;;15.83;11.07;;;;;;;19.58;81.92;99209.16;5014688;28;20197;-89
2022/08/05 04:19:45;;;;;;;15.97;11.30;;;;;;;19.92;80.71;99210.97;4997723;28;20205;-90
2022/08/05 04:22:11;;;;;;;17.67;11.37;;;;;;;19.96;79.89;99211.00;5013271;28;20180;-89
2022/08/05 04:24:41;;;;;;;15.67;11.33;;;;;;;18.21;80.55;98943.28;4997228;28;20183;-89
2022/08/05 04:27:06;;;;;;;18.37;11.40;;;;;;;19.24;81.66;99137.06;4997013;28;20340;-90
2022/08/05 04:29:32;;;;;;;17.73;11.03;;;;;;;19.09;83.70;99133.56;5014940;28;20167;-88
2022/08/05 04:31:57;;;;;;;16.63;12.13;;;;;;;17.68;82.25;98831.13;4997464;28;20225;-88
2022/08/05 04:34:23;;;;;;;24.60;15.20;;;;;;;18.84;81.66;98986.34;5015286;28;20190;-90
2022/08/05 04:36:48;;;;;;;21.47;12.87;;;;;;;18.54;83.01;98960.56;4996967;28;20182;-90
2022/08/05 04:39:14;;;;;;;16.17;11.40;;;;;;;18.35;81.54;98892.09;4996620;28;20258;-90
2022/08/05 04:41:39;;;;;;;16.43;11.30;;;;;;;18.90;80.33;98941.91;4997830;28;20237;-89
2022/08/05 04:44:05;;;;;;;16.70;11.23;;;;;;;19.57;79.20;99023.38;5015817;28;20173;-90
2022/08/05 04:46:31;;;;;;;20.70;10.83;;;;;;;20.73;78.70;99204.28;4997098;28;20170;-90
2022/08/05 04:48:56;;;;;;;13.27;9.73;;;;;;;19.62;80.03;99059.34;5015657;28;20174;-91
2022/08/05 04:51:21;;;;;;;12.20;9.33;;;;;;;20.16;78.84;99151.91;4996664;28;20604;-92
2022/08/05 04:53:47;;;;;;;11.70;9.27;;;;;;;19.36;77.32;98964.28;5014950;28;20163;-91
2022/08/05 04:56:13;;;;;;;13.63;10.10;;;;;;;20.28;76.14;99082.56;5014810;28;20170;-91
2022/08/05 04:58:39;;;;;;;15.30;10.07;;;;;;;18.91;74.17;98834.16;5012560;28;20167;-92
2022/08/05 05:01:05;;;;;;;12.83;8.73;;;;;;;20.67;73.99;99116.81;4997667;28;20205;-89
2022/08/05 05:03:30;;;;;;;15.13;9.47;;;;;;;19.30;71.71;98852.16;4996787;28;20565;-89
2022/08/05 05:05:55;;;;;;;12.30;8.70;;;;;;;19.82;71.84;98950.63;4995833;28;20170;-90
2022/08/05 05:08:21;;;;;;;17.07;10.27;;;;;;;20.78;71.67;99085.06;4997713;28;20743;-89
2022/08/05 05:10:46;;;;;;;14.27;9.47;;;;;;;19.29;69.99;98809.38;4997243;28;20173;-91
2022/08/05 05:13:14;;;;;;;14.50;8.77;;;;;;;21.98;69.19;99201.44;4997256;28;20200;-89
2022/08/05 05:15:41;;;;;;;13.17;9.27;;;;;;;19.62;68.10;98794.81;5015344;28;20175;-91
2022/08/05 05:18:07;;;;;;;14.57;10.27;;;;;;;20.20;66.61;98883.75;5026044;28;20178;-90
2022/08/05 05:20:33;;;;;;;16.07;10.17;;;;;;;21.69;65.87;99083.03;5035359;28;20201;-89
2022/08/05 05:23:00;;;;;;;14.13;9.63;;;;;;;21.89;65.01;99092.38;5033956;28;20170;-90
2022/08/05 05:25:26;;;;;;;17.67;10.63;;;;;;;22.65;64.58;99185.56;5015487;28;20564;-90
2022/08/05 05:27:52;;;;;;;13.17;9.90;;;;;;;22.94;63.49;99190.47;5033042;28;20219;-89
2022/08/05 05:30:18;;;;;;;19.53;10.70;;;;;;;21.94;62.58;98997.84;5033191;28;20166;-90
2022/08/05 05:32:44;;;;;;;12.83;9.10;;;;;;;22.99;62.17;99199.88;5017936;28;20169;-89
2022/08/05 05:35:09;;;;;;;13.30;9.60;;;;;;;21.33;62.10;98892.66;5020758;28;20172;-89
2022/08/05 05:38:02;;;;;;;11.17;8.80;;;;;;;23.01;61.41;99145.63;5033787;28;20194;-91
2022/08/05 05:40:29;;;;;;;16.50;10.60;;;;;;;22.79;61.05;99052.94;4984729;28;20215;-90
2022/08/05 05:42:55;;;;;;;15.43;9.63;;;;;;;23.77;59.82;99192.16;4983958;28;20191;-90
2022/08/05 05:45:21;;;;;;;13.93;9.33;;;;;;;22.89;59.24;99012.34;4998822;28;20555;-89
2022/08/05 05:47:47;;;;;;;14.83;8.43;;;;;;;22.43;58.67;98952.66;5001150;28;20217;-90
2022/08/05 05:50:14;;;;;;;12.47;7.87;;;;;;;24.02;57.69;99178.88;5017437;28;20167;-90
2022/08/05 05:52:41;;;;;;;9.77;6.70;;;;;;;21.83;58.48;98920.56;5000019;28;20567;-90
2022/08/05 05:55:12;;;;;;;11.27;7.37;;;;;;;23.90;58.05;99194.56;4999642;28;20173;-90
2022/08/05 05:57:39;;;;;;;15.37;9.30;;;;;;;23.08;57.02;98985.44;4998264;28;20186;-89
2022/08/05 06:00:07;;;;;;;12.87;7.97;;;;;;;24.35;55.96;99166.38;4998472;28;20225;-88
2022/08/05 06:02:32;;;;;;;14.03;8.10;;;;;;;24.34;55.20;99152.56;4999469;28;20278;-90
2022/08/05 06:04:58;;;;;;;14.30;9.60;;;;;;;23.80;54.04;99030.09;5016443;28;20632;-90
2022/08/05 06:07:23;;;;;;;11.67;7.77;;;;;;;23.10;54.39;98933.78;4998816;28;20177;-89
2022/08/05 06:09:49;;;;;;;9.47;8.07;;;;;;;22.95;53.87;98914.19;4998539;28;20174;-91
2022/08/05 06:12:14;;;;;;;12.10;8.40;;;;;;;24.95;53.36;99193.00;4998946;28;20614;-91
2022/08/05 06:14:43;;;;;;;9.80;7.80;;;;;;;24.73;52.73;99125.16;4998784;28;20181;-91
2022/08/05 06:17:09;;;;;;;12.17;8.20;;;;;;;24.17;52.05;98990.72;5016776;28;20169;-91
2022/08/05 06:19:34;;;;;;;7.77;6.90;;;;;;;23.76;51.89;98983.63;5023738;28;20198;-91
2022/08/05 06:21:59;;;;;;;8.67;6.90;;;;;;;24.53;52.52;99143.63;4996987;28;20185;-90
2022/08/05 06:24:25;;;;;;;12.97;7.50;;;;;;;22.82;52.78;98855.84;4978966;28;20195;-89
2022/08/05 06:26:50;;;;;;;8.63;7.00;;;;;;;24.75;52.02;99120.81;4979552;28;20217;-91
2022/08/05 06:29:16;;;;;;;8.67;7.00;;;;;;;24.09;52.61;99024.47;5007842;28;20194;-90
2022/08/05 06:31:41;;;;;;;9.80;7.30;;;;;;;23.87;52.59;98979.16;5017531;28;20651;-90
2022/08/05 06:34:06;;;;;;;8.37;7.40;;;;;;;24.02;52.58;99021.13;5018366;28;20171;-91
2022/08/05 06:36:32;;;;;;;9.57;7.40;;;;;;;25.21;51.23;99126.91;5009170;28;20179;-90
2022/08/05 06:38:57;;;;;;;10.73;8.10;;;;;;;24.83;50.58;98989.47;5013198;28;20230;-88
2022/08/05 06:41:23;;;;;;;9.27;7.53;;;;;;;26.05;50.02;99179.59;5001086;28;20754;-91
2022/08/05 06:43:48;;;;;;;9.73;7.67;;;;;;;26.17;49.15;99130.06;4998668;28;20179;-90
2022/08/05 06:46:14;;;;;;;11.03;8.17;;;;;;;25.54;48.60;98968.97;5004170;28;20179;-90
2022/08/05 06:48:40;;;;;;;10.17;7.10;;;;;;;26.08;50.17;99138.88;5001119;28;20191;-89
2022/08/05 06:51:05;;;;;;;9.13;7.50;;;;;;;25.46;50.48;99020.97;5019520;28;20182;-91
2022/08/05 06:53:31;;;;;;;10.40;7.70;;;;;;;26.54;50.31;99190.59;5002473;28;20221;-90
2022/08/05 06:55:58;;;;;;;11.67;8.33;;;;;;;26.80;49.97;99197.78;5019484;28;20166;-89
2022/08/05 06:58:24;;;;;;;10.38;7.82;;;;;;;26.07;49.75;99059.31;4998155;28;20572;-91
2022/08/05 07:00:50;;;;;;;11.03;7.40;;;;;;;26.27;50.09;99061.47;4998643;28;20209;-90
2022/08/05 07:03:16;;;;;;;12.07;8.10;;;;;;;25.59;49.83;98915.25;5016175;28;20251;-92
2022/08/05 07:05:42;;;;;;;10.23;7.55;;;;;;;26.29;49.57;99008.63;4998878;28;20177;-90
2022/08/05 07:08:07;;;;;;;11.15;8.00;;;;;;;25.52;49.82;98903.34;4999080;28;20240;-89
2022/08/05 07:10:33;;;;;;;9.70;7.75;;;;;;;25.83;51.03;98969.13;4999408;28;20245;-92
2022/08/05 07:18:26;;;;;;;8.63;7.72;;;;;;;26.95;48.12;98963.53;5020052;28;20259;-89
2022/08/05 07:20:51;;;;;;;9.57;7.65;;;;;;;26.90;47.84;98942.88;5003527;28;20229;-90
2022/08/05 07:23:17;;;;;;;9.98;7.80;;;;;;;28.05;48.43;99196.09;5003911;28;20177;-88
2022/08/05 07:25:42;;;;;;;14.13;8.30;;;;;;;28.27;47.63;99159.81;5000288;28;20173;-91
2022/08/05 07:28:08;;;;;;;17.25;10.15;;;;;;;28.66;46.99;99153.38;5015417;28;20181;-90
2022/08/05 07:30:35;;;;;;;11.95;8.70;;;;;;;28.60;45.56;99120.53;4999392;28;20224;-90
2022/08/05 07:33:03;;;;;;;10.93;7.85;;;;;;;28.94;44.99;99135.91;4998380;28;20182;-90
2022/08/05 07:35:29;;;;;;;9.88;7.25;;;;;;;28.55;44.12;99007.81;4998096;28;20184;-90
2022/08/05 07:37:54;;;;;;;12.38;7.97;;;;;;;29.32;44.34;99129.34;4998267;28;20777;-92
2022/08/05 07:40:20;;;;;;;10.30;7.50;;;;;;;29.50;43.85;99196.50;5015364;28;20295;-91
2022/08/05 07:42:46;;;;;;;8.93;7.65;;;;;;;29.56;43.44;99138.88;4998118;28;20177;-91
2022/08/05 07:45:12;;;;;;;11.32;8.20;;;;;;;28.93;43.62;99032.53;4997882;28;20183;-90
2022/08/05 07:47:38;;;;;;;8.13;7.32;;;;;;;28.14;44.10;98952.84;5015298;28;20199;-91
2022/08/05 07:50:04;;;;;;;8.75;7.80;;;;;;;28.85;43.71;99068.44;4996874;28;20182;-89
2022/08/05 07:52:30;;;;;;;11.98;7.95;;;;;;;28.55;43.82;98947.88;4997490;28;20186;-91
2022/08/05 07:54:56;;;;;;;11.80;7.20;;;;;;;28.10;43.76;98959.94;5014673;28;20627;-91
2022/08/05 07:57:21;;;;;;;9.13;7.90;;;;;;;29.00;42.61;99033.16;4997953;28;20175;-89
2022/08/05 07:59:47;;;;;;;8.15;7.35;;;;;;;30.39;41.24;99177.47;4996082;28;20970;-91
2022/08/05 08:02:12;;;;;;;13.60;7.78;;;;;;;29.41;41.34;98974.25;4996445;28;20171;-92
2022/08/05 08:04:37;;;;;;;12.75;7.90;;;;;;;30.45;40.89;99185.97;5015650;28;20202;-92
2022/08/05 08:07:03;;;;;;;10.90;8.00;;;;;;;29.81;41.30;99034.41;4997354;28;20174;-91
2022/08/05 08:09:28;;;;;;;9.13;7.53;;;;;;;30.12;41.18;99044.47;4996950;28;20217;-91
2022/08/05 08:11:54;;;;;;;11.32;7.55;;;;;;;30.42;41.17;99092.00;4996999;28;20179;-92
2022/08/05 08:14:19;;;;;;;8.90;8.00;;;;;;;30.72;40.08;99117.72;4996368;28;20189;-90
2022/08/05 08:17:09;;;;;;;8.15;7.30;;;;;;;30.85;40.04;99104.97;5153171;27;20542;-92
2022/08/05 08:19:36;;;;;;;9.00;7.47;;;;;;;31.18;40.17;99178.56;5150988;27;20266;-92
2022/08/05 08:22:02;;;;;;;8.88;7.13;;;;;;;29.99;40.10;98964.94;5131217;27;20568;-91
2022/08/05 08:24:29;;;;;;;9.15;7.45;;;;;;;30.57;39.39;98979.88;5131313;27;20173;-91
2022/08/05 08:26:54;;;;;;;7.95;7.00;;;;;;;29.53;39.83;98906.75;5130645;28;20564;-91
2022/08/05 08:29:19;;;;;;;9.65;7.30;;;;;;;30.03;40.96;99070.94;5132102;27;20248;-91
2022/08/05 08:31:45;;;;;;;11.07;7.50;;;;;;;30.75;41.74;99161.19;5148219;27;20177;-92
2022/08/05 08:34:10;;;;;;;8.73;7.43;;;;;;;31.70;39.30;99175.31;5150893;27;20185;-92
2022/08/05 08:36:36;;;;;;;7.88;7.07;;;;;;;31.10;38.57;98974.84;5153456;27;20279;-90
2022/08/05 08:39:01;;;;;;;8.98;6.68;;;;;;;31.24;39.85;99176.50;5150649;27;20286;-91
2022/08/05 08:41:31;;;;;;;9.98;6.82;;;;;;;31.88;39.47;99169.25;5152631;27;20173;-90
2022/08/05 08:43:57;;;;;;;8.65;6.90;;;;;;;30.84;38.65;98926.34;5152972;27;20165;-91
2022/08/05 08:46:26;;;;;;;8.73;6.82;;;;;;;32.23;37.91;99149.28;5150526;27;20263;-92
2022/08/05 08:48:54;;;;;;;9.00;6.75;;;;;;;31.13;38.42;98961.63;5152195;27;20180;-91
2022/08/05 08:51:22;;;;;;;10.20;7.50;;;;;;;32.88;37.08;99161.75;5141237;27;20167;-92
2022/08/05 08:53:48;;;;;;;7.30;6.45;;;;;;;32.87;36.15;99110.25;5135029;27;20170;-91
2022/08/05 08:56:16;;;;;;;8.07;6.80;;;;;;;30.97;37.49;98950.19;5131068;27;20212;-91
2022/08/05 08:58:42;;;;;;;7.38;6.20;;;;;;;32.63;35.88;99142.97;5131071;27;20167;-92
2022/08/05 09:01:07;;;;;;;8.23;6.40;;;;;;;33.24;35.35;99138.91;5129095;27;20185;-90
2022/08/05 09:03:34;;;;;;;7.55;6.57;;;;;;;31.93;35.31;98845.13;5131292;27;20163;-91
2022/08/05 09:05:59;;;;;;;10.73;9.30;;;;;;;32.62;35.46;98982.19;5131255;27;20167;-90
2022/08/05 09:08:25;;;;;;;13.73;8.23;;;;;;;32.04;35.98;98938.91;5130830;27;20197;-88
2022/08/05 09:10:50;;;;;;;7.13;6.43;;;;;;;32.73;35.80;99005.22;5135221;27;20193;-91
2022/08/05 09:13:18;;;;;;;9.25;6.40;;;;;;;33.03;34.62;99037.69;5188418;27;20169;-91
2022/08/05 09:15:44;;;;;;;10.35;7.68;;;;;;;33.51;34.72;99106.88;5171778;27;20225;-91
2022/08/05 09:18:09;;;;;;;7.10;5.63;;;;;;;32.38;33.01;98893.47;5170960;27;20170;-91
2022/08/05 09:20:36;;;;;;;5.93;5.35;;;;;;;33.55;32.72;99100.50;5170945;27;20166;-91
2022/08/05 09:23:02;;;;;;;6.00;5.50;;;;;;;33.10;33.16;99018.06;5151932;27;20167;-91
2022/08/05 09:25:28;;;;;;;7.65;6.90;;;;;;;31.92;33.49;98846.03;5150855;27;20588;-92
2022/08/05 09:27:54;;;;;;;8.50;5.95;;;;;;;32.43;32.58;98862.59;5139963;27;20207;-91
2022/08/05 09:30:20;;;;;;;8.02;5.60;;;;;;;33.73;31.83;98997.13;5138055;27;20178;-92
2022/08/05 09:32:45;;;;;;;6.00;5.25;;;;;;;33.81;32.19;98966.84;5151354;27;20257;-91
2022/08/05 09:35:15;;;;;;;6.40;5.10;;;;;;;33.60;31.39;98956.72;5156979;27;20194;-92
2022/08/05 09:37:52;;;;;;;9.25;5.70;;;;;;;31.31;32.56;98674.75;5157392;27;20834;-92
2022/08/05 09:40:36;;;;;;;7.47;5.20;;;;;;;32.95;32.49;99028.53;5156943;27;20241;-92
2022/08/05 09:43:05;;;;;;;8.27;5.22;;;;;;;33.55;32.51;99072.47;5156518;27;20158;-91
2022/08/05 09:45:37;;;;;;;9.90;5.35;;;;;;;34.51;31.34;99095.97;5156936;27;20193;-91
2022/08/05 09:48:20;;;;;;;8.00;5.07;;;;;;;33.84;31.40;98968.47;5158134;27;20204;-91
2022/08/05 09:50:50;;;;;;;6.30;5.13;;;;;;;34.67;30.74;99063.44;5158533;27;20162;-92
2022/08/05 09:53:15;;;;;;;6.95;5.22;;;;;;;34.82;30.95;99051.16;5158189;27;20542;-91
2022/08/05 09:55:41;;;;;;;6.13;5.07;;;;;;;33.60;30.61;98862.19;5158650;27;20198;-90
2022/08/05 09:58:11;;;;;;;7.22;5.00;;;;;;;34.58;30.70;99084.19;5156854;27;20158;-90
2022/08/05 10:00:37;;;;;;;7.00;4.88;;;;;;;33.16;30.59;98820.94;5174517;27;20178;-89
2022/08/05 10:03:09;;;;;;;7.57;5.13;;;;;;;33.17;30.30;98816.56;5157738;27;20625;-90
2022/08/05 10:05:34;;;;;;;10.40;5.25;;;;;;;33.96;30.24;98923.06;5158094;27;20646;-90
2022/08/05 10:08:05;;;;;;;6.20;5.10;;;;;;;34.68;30.89;99075.66;5156421;27;20174;-91
2022/08/05 10:10:42;;;;;;;5.50;5.00;;;;;;;34.63;30.22;99074.25;5156356;27;20170;-91
2022/08/05 10:13:08;;;;;;;7.05;5.22;;;;;;;34.21;30.94;99072.31;5128133;27;20225;-92
2022/08/05 10:15:38;;;;;;;6.10;5.50;;;;;;;34.05;31.02;99050.44;5114657;28;20278;-90
2022/08/05 10:18:21;;;;;;;8.43;5.60;;;;;;;34.36;31.16;99067.00;5115064;28;20193;-91
2022/08/05 10:20:58;;;;;;;6.70;6.00;;;;;;;33.06;30.94;98779.59;5114136;28;20186;-90
2022/08/05 10:23:30;;;;;;;8.77;5.97;;;;;;;34.77;30.99;99066.38;5113913;27;20226;-90
2022/08/05 10:25:58;;;;;;;6.63;5.38;;;;;;;34.63;30.56;99066.34;5115184;28;20179;-90
2022/08/05 10:28:24;;;;;;;6.40;5.80;;;;;;;34.74;30.76;99062.16;5115329;28;20206;-91
2022/08/05 10:30:53;;;;;;;7.28;5.50;;;;;;;34.75;30.67;99032.25;5114399;28;20171;-92
2022/08/05 10:33:22;;;;;;;5.90;5.30;;;;;;;33.12;31.17;98810.72;5114223;27;20262;-91
2022/08/05 10:35:48;;;;;;;7.40;5.32;;;;;;;33.82;30.74;98891.50;5114218;28;20302;-92
2022/08/05 10:38:14;;;;;;;5.85;5.22;;;;;;;34.64;29.80;98981.25;5113460;28;20205;-92
2022/08/05 10:40:51;;;;;;;6.65;5.53;;;;;;;34.66;29.99;98955.69;5115351;28;20242;-92
2022/08/05 10:43:35;;;;;;;7.07;5.07;;;;;;;35.37;30.08;99038.94;5113892;27;20163;-92
2022/08/05 10:46:06;;;;;;;6.00;5.50;;;;;;;34.30;29.21;98829.94;5115139;28;20173;-90
2022/08/05 10:48:31;;;;;;;6.47;5.50;;;;;;;35.58;29.37;99038.53;5114694;28;20179;-92
2022/08/05 10:51:19;;;;;;;5.72;5.18;;;;;;;35.56;29.10;99035.16;5114515;28;20197;-91
2022/08/05 10:53:50;;;;;;;7.13;5.55;;;;;;;35.57;29.46;99031.59;5113550;27;20698;-92
2022/08/05 10:56:17;;;;;;;7.07;5.35;;;;;;;33.74;30.16;98762.41;5114624;28;20300;-92
2022/08/05 10:58:48;;;;;;;8.18;5.75;;;;;;;33.05;29.54;98642.31;5113809;28;20250;-92
2022/08/05 11:01:14;;;;;;;5.78;5.25;;;;;;;34.30;29.67;98899.13;5113135;28;20595;-90
2022/08/05 11:03:59;;;;;;;7.90;5.15;;;;;;;33.70;30.13;98829.22;5127817;27;20166;-89
2022/08/05 11:06:25;;;;;;;5.80;5.20;;;;;;;34.60;30.02;99013.94;5135547;27;20257;-88
2022/08/05 11:09:20;;;;;;;6.63;4.95;;;;;;;35.07;29.30;99018.94;5134790;27;20197;-91
2022/08/05 11:11:49;;;;;;;7.55;5.38;;;;;;;35.23;28.93;99004.72;5056306;28;20243;-90
2022/08/05 11:14:36;;;;;;;6.47;5.32;;;;;;;35.49;29.44;99024.16;5055513;28;20180;-91
2022/08/05 11:17:26;;;;;;;7.68;5.40;;;;;;;35.26;29.66;99017.72;5078282;28;20228;-90
2022/08/05 11:19:56;;;;;;;6.20;5.57;;;;;;;35.11;29.29;98933.59;5067202;28;20225;-90
2022/08/05 11:22:38;;;;;;;6.55;5.30;;;;;;;35.41;29.11;98936.88;5057707;28;20238;-90
2022/08/05 11:25:28;;;;;;;5.80;5.20;;;;;;;35.40;29.33;99001.88;5068743;28;21249;-90
2022/08/05 11:27:54;;;;;;;5.78;5.20;;;;;;;34.79;30.27;98996.09;5035454;28;20657;-90
2022/08/05 11:30:20;;;;;;;6.65;5.45;;;;;;;33.24;30.47;98787.22;5035238;28;20212;-92
2022/08/05 11:32:45;;;;;;;5.63;5.20;;;;;;;34.52;30.04;98905.69;5054013;28;20181;-90
2022/08/05 11:35:48;;;;;;;6.05;5.40;;;;;;;36.04;29.06;98995.13;5093418;28;20212;-91